createdAt,value
2023-05-04T00:00:22.653Z,101757.38
2023-05-04T00:02:50.651Z,101760.41
2023-05-04T00:05:18.234Z,101765.22
2023-05-04T00:07:45.941Z,101771.63
2023-05-04T00:10:13.416Z,101768.25
2023-05-04T00:12:41.539Z,101768.53
2023-05-04T00:15:09.467Z,101772.56
2023-05-04T00:17:37.177Z,101772.31
2023-05-04T00:20:05.523Z,101778.28
2023-05-04T00:22:33.512Z,101774.75
2023-05-04T00:25:01.067Z,101774.38
2023-05-04T00:27:28.743Z,101771.50
2023-05-04T00:29:56.431Z,101774.16
2023-05-04T00:32:23.994Z,101772.66
2023-05-04T00:34:52.130Z,101778.84
2023-05-04T00:37:20.918Z,101776.06
2023-05-04T00:39:48.381Z,101775.34
2023-05-04T00:42:16.040Z,101785.47
2023-05-04T00:44:44.916Z,101783.69
2023-05-04T00:47:13.688Z,101787.13
2023-05-04T00:49:41.659Z,101792.38
2023-05-04T00:52:10.658Z,101793.28
2023-05-04T00:54:38.744Z,101789.25
2023-05-04T00:57:06.547Z,101784.19
2023-05-04T00:59:34.507Z,101776.25
2023-05-04T01:02:02.020Z,101780.66
2023-05-04T01:04:29.996Z,101785.22
2023-05-04T01:07:06.134Z,101783.91
2023-05-04T01:09:43.745Z,101779.31
2023-05-04T01:12:18.132Z,101775.19
2023-05-04T01:14:47.518Z,101773.91
2023-05-04T01:17:15.051Z,101774.59
2023-05-04T01:19:42.962Z,101770.97
2023-05-04T01:22:10.499Z,101768.38
2023-05-04T01:24:38.428Z,101770.47
2023-05-04T01:27:24.653Z,101772.28
2023-05-04T01:30:00.244Z,101769.06
2023-05-04T01:32:29.735Z,101771.13
2023-05-04T01:35:00.248Z,101781.63
2023-05-04T01:37:28.073Z,101779.91
2023-05-04T01:39:55.702Z,101780.88
2023-05-04T01:42:24.478Z,101775.78
2023-05-04T01:44:51.996Z,101781.09
2023-05-04T01:47:19.593Z,101787.53
2023-05-04T01:49:47.108Z,101790.31
2023-05-04T01:52:16.635Z,101778.25
2023-05-04T01:54:44.942Z,101783.50
2023-05-04T01:57:12.377Z,101782.84
2023-05-04T01:59:39.821Z,101784.75
2023-05-04T02:02:09.059Z,101786.59
2023-05-04T02:04:36.673Z,101788.22
2023-05-04T02:07:04.245Z,101783.81
2023-05-04T02:09:31.940Z,101789.41
2023-05-04T02:12:00.622Z,101789.53
2023-05-04T02:14:28.212Z,101789.53
2023-05-04T02:16:56.363Z,101796.94
2023-05-04T02:19:23.876Z,101795.09
2023-05-04T02:21:52.498Z,101798.00
2023-05-04T02:24:22.380Z,101784.47
2023-05-04T02:26:50.336Z,101788.31
2023-05-04T02:29:17.775Z,101795.56
2023-05-04T02:31:45.400Z,101790.28
2023-05-04T02:34:14.779Z,101785.06
2023-05-04T02:36:47.566Z,101792.69
2023-05-04T02:39:15.372Z,101778.47
2023-05-04T02:41:42.901Z,101782.91
2023-05-04T02:44:10.376Z,101776.59
2023-05-04T02:46:37.975Z,101778.31
2023-05-04T02:49:05.575Z,101774.75
2023-05-04T02:51:33.560Z,101766.72
2023-05-04T02:54:01.112Z,101764.88
2023-05-04T02:56:28.665Z,101769.38
2023-05-04T02:58:56.087Z,101770.50
2023-05-04T03:01:23.749Z,101769.75
2023-05-04T03:03:51.421Z,101777.91
2023-05-04T03:06:18.931Z,101773.28
2023-05-04T03:08:46.449Z,101781.16
2023-05-04T03:11:16.542Z,101789.94
2023-05-04T03:13:44.251Z,101790.09
2023-05-04T03:16:12.234Z,101791.16
2023-05-04T03:18:39.992Z,101781.03
2023-05-04T03:21:07.537Z,101769.59
2023-05-04T03:23:36.380Z,101754.06
2023-05-04T03:26:04.411Z,101748.38
2023-05-04T03:28:32.285Z,101745.66
2023-05-04T03:30:59.757Z,101741.03
2023-05-04T03:33:27.425Z,101746.06
2023-05-04T03:35:56.514Z,101755.19
2023-05-04T03:38:23.961Z,101745.09
2023-05-04T03:40:53.137Z,101747.47
2023-05-04T03:43:20.673Z,101753.56
2023-05-04T03:45:49.694Z,101751.63
2023-05-04T03:48:18.156Z,101753.50
2023-05-04T03:50:45.573Z,101754.34
2023-05-04T03:53:13.171Z,101752.38
2023-05-04T03:55:41.937Z,101748.66
2023-05-04T03:58:09.417Z,101747.22
2023-05-04T04:00:36.976Z,101748.72
2023-05-04T04:03:11.627Z,101747.66
2023-05-04T04:05:39.882Z,101750.81
2023-05-04T04:08:07.773Z,101747.97
2023-05-04T04:10:35.761Z,101755.69
2023-05-04T04:13:03.502Z,101751.81
2023-05-04T04:15:31.095Z,101751.44
2023-05-04T04:17:58.776Z,101744.03
2023-05-04T04:20:26.515Z,101756.84
2023-05-04T04:22:54.260Z,101758.34
2023-05-04T04:25:21.766Z,101753.81
2023-05-04T04:27:49.672Z,101754.03
2023-05-04T04:30:17.249Z,101752.66
2023-05-04T04:32:45.838Z,101760.69
2023-05-04T04:35:14.297Z,101752.81
2023-05-04T04:37:42.009Z,101751.66
2023-05-04T04:40:10.425Z,101746.78
2023-05-04T04:42:38.586Z,101749.09
2023-05-04T04:45:06.922Z,101756.09
2023-05-04T04:47:34.630Z,101746.47
2023-05-04T04:50:03.556Z,101755.16
2023-05-04T04:52:32.621Z,101760.63
2023-05-04T04:55:00.360Z,101757.25
2023-05-04T04:57:29.379Z,101751.72
2023-05-04T04:59:57.981Z,101751.94
2023-05-04T05:02:25.552Z,101751.63
2023-05-04T05:04:54.120Z,101751.41
2023-05-04T05:07:21.989Z,101752.06
2023-05-04T05:09:49.611Z,101748.28
2023-05-04T05:12:17.184Z,101750.19
2023-05-04T05:14:45.807Z,101752.53
2023-05-04T05:17:13.316Z,101741.13
2023-05-04T05:19:42.346Z,101744.50
2023-05-04T05:22:10.061Z,101748.63
2023-05-04T05:24:37.619Z,101760.34
2023-05-04T05:27:05.078Z,101749.19
2023-05-04T05:29:32.576Z,101746.09
2023-05-04T05:32:00.088Z,101744.41
2023-05-04T05:34:27.510Z,101744.22
2023-05-04T05:36:55.400Z,101748.69
2023-05-04T05:39:23.686Z,101751.03
2023-05-04T05:41:51.104Z,101760.78
2023-05-04T05:44:18.606Z,101749.78
2023-05-04T05:46:46.251Z,101752.28
2023-05-04T05:49:14.018Z,101747.94
2023-05-04T05:51:42.032Z,101749.75
2023-05-04T05:54:09.566Z,101747.94
2023-05-04T05:56:38.266Z,101753.09
2023-05-04T05:59:09.538Z,101748.09
2023-05-04T06:01:37.422Z,101752.97
2023-05-04T06:04:05.132Z,101745.59
2023-05-04T06:06:33.106Z,101748.75
2023-05-04T06:09:01.084Z,101743.75
2023-05-04T06:11:28.738Z,101746.50
2023-05-04T06:13:56.311Z,101754.94
2023-05-04T06:16:23.900Z,101752.81
2023-05-04T06:18:52.060Z,101750.16
2023-05-04T06:21:19.581Z,101748.34
2023-05-04T06:23:49.982Z,101758.00
2023-05-04T06:26:19.809Z,101759.16
2023-05-04T06:28:48.205Z,101759.63
2023-05-04T06:31:15.746Z,101764.47
2023-05-04T06:33:43.218Z,101762.31
2023-05-04T06:36:12.270Z,101757.66
2023-05-04T06:38:39.738Z,101766.53
2023-05-04T06:41:07.271Z,101761.22
2023-05-04T06:43:35.058Z,101762.44
2023-05-04T06:46:03.432Z,101763.88
2023-05-04T06:48:32.295Z,101757.88
2023-05-04T06:51:01.534Z,101749.47
2023-05-04T06:53:30.981Z,101751.13
2023-05-04T06:55:58.437Z,101747.00
2023-05-04T06:58:26.177Z,101751.53
2023-05-04T07:00:53.878Z,101753.53
2023-05-04T07:03:21.625Z,101744.34
2023-05-04T07:05:50.814Z,101746.84
2023-05-04T07:08:19.750Z,101755.56
2023-05-04T07:10:47.346Z,101753.69
2023-05-04T07:13:15.178Z,101745.00
2023-05-04T07:15:42.694Z,101743.31
2023-05-04T07:18:10.281Z,101746.03
2023-05-04T07:20:37.913Z,101743.78
2023-05-04T07:23:05.409Z,101746.09
2023-05-04T07:25:33.088Z,101749.22
2023-05-04T07:28:01.144Z,101749.00
2023-05-04T07:30:28.659Z,101747.31
2023-05-04T07:32:56.558Z,101742.72
2023-05-04T07:35:24.378Z,101745.22
2023-05-04T07:37:52.073Z,101741.13
2023-05-04T07:40:20.307Z,101746.69
2023-05-04T07:42:47.833Z,101742.00
2023-05-04T07:45:17.018Z,101740.03
2023-05-04T07:47:44.684Z,101734.44
2023-05-04T07:50:12.819Z,101731.34
2023-05-04T07:52:40.406Z,101729.59
2023-05-04T07:55:08.586Z,101732.28
2023-05-04T07:57:37.899Z,101728.66
2023-05-04T08:00:06.997Z,101726.31
2023-05-04T08:02:41.229Z,101728.09
2023-05-04T08:05:09.359Z,101721.66
2023-05-04T08:07:37.028Z,101715.06
2023-05-04T08:10:05.224Z,101716.25
2023-05-04T08:12:33.646Z,101715.06
2023-05-04T08:15:02.213Z,101720.25
2023-05-04T08:17:30.212Z,101720.03
2023-05-04T08:19:57.901Z,101719.16
2023-05-04T08:22:25.451Z,101724.09
2023-05-04T08:24:53.111Z,101717.28
2023-05-04T08:27:20.622Z,101715.63
2023-05-04T08:29:48.139Z,101711.97
2023-05-04T08:32:15.606Z,101720.22
2023-05-04T08:34:43.181Z,101705.75
2023-05-04T08:37:10.733Z,101705.09
2023-05-04T08:39:40.554Z,101707.56
2023-05-04T08:42:10.382Z,101707.69
2023-05-04T08:44:38.040Z,101703.44
2023-05-04T08:47:05.886Z,101699.72
2023-05-04T08:49:33.527Z,101707.22
2023-05-04T08:52:01.924Z,101696.69
2023-05-04T08:54:29.748Z,101691.91
2023-05-04T08:56:58.858Z,101683.97
2023-05-04T08:59:29.222Z,101688.69
2023-05-04T09:01:59.396Z,101683.06
2023-05-04T09:04:29.552Z,101674.00
2023-05-04T09:06:58.706Z,101675.13
2023-05-04T09:09:28.692Z,101677.38
2023-05-04T09:11:56.436Z,101674.44
2023-05-04T09:14:33.101Z,101672.50
2023-05-04T09:17:04.320Z,101666.66
2023-05-04T09:19:35.543Z,101667.88
2023-05-04T09:22:14.993Z,101660.56
2023-05-04T09:24:42.818Z,101664.19
2023-05-04T09:27:16.170Z,101668.41
2023-05-04T09:29:44.460Z,101672.75
2023-05-04T09:32:14.417Z,101668.50
2023-05-04T09:34:52.739Z,101666.84
2023-05-04T09:37:22.133Z,101671.19
2023-05-04T09:39:52.573Z,101671.19
2023-05-04T09:42:20.881Z,101665.53
2023-05-04T09:45:00.058Z,101662.13
2023-05-04T09:47:39.381Z,101660.22
2023-05-04T09:50:25.441Z,101657.59
2023-05-04T09:52:54.841Z,101654.63
2023-05-04T09:55:23.052Z,101657.66
2023-05-04T09:57:50.998Z,101662.91
2023-05-04T10:00:19.438Z,101653.81
2023-05-04T10:02:48.169Z,101653.41
2023-05-04T10:05:17.951Z,101652.03
2023-05-04T10:07:46.446Z,101653.63
2023-05-04T10:10:15.229Z,101650.34
2023-05-04T10:12:45.106Z,101655.19
2023-05-04T10:15:14.624Z,101641.47
2023-05-04T10:18:13.644Z,101631.47
2023-05-04T10:20:59.865Z,101642.16
2023-05-04T10:23:52.925Z,101633.59
2023-05-04T10:26:38.396Z,101628.91
2023-05-04T10:29:05.854Z,101629.00
2023-05-04T10:31:41.139Z,101618.56
2023-05-04T10:34:10.453Z,101621.31
2023-05-04T10:36:44.612Z,101626.69
2023-05-04T10:39:20.371Z,101623.66
2023-05-04T10:41:59.221Z,101623.38
2023-05-04T10:44:28.749Z,101625.00
2023-05-04T10:47:00.865Z,101623.97
2023-05-04T10:49:29.196Z,101620.28
2023-05-04T10:52:13.483Z,101624.63
2023-05-04T10:54:42.199Z,101617.00
2023-05-04T10:57:17.583Z,101607.53
2023-05-04T10:59:58.939Z,101608.91
2023-05-04T11:02:28.885Z,101603.66
2023-05-04T11:05:06.063Z,101596.13
2023-05-04T11:07:34.545Z,101587.59
2023-05-04T11:10:03.447Z,101599.53
2023-05-04T11:12:33.230Z,101589.94
2023-05-04T11:15:08.341Z,101587.69
2023-05-04T11:17:49.048Z,101574.38
2023-05-04T11:20:27.538Z,101572.13
2023-05-04T11:22:55.176Z,101580.09
2023-05-04T11:25:29.696Z,101566.03
2023-05-04T11:28:01.545Z,101571.44
2023-05-04T11:30:34.579Z,101562.34
2023-05-04T11:33:11.828Z,101562.78
2023-05-04T11:35:40.655Z,101551.00
2023-05-04T11:38:08.448Z,101553.97
2023-05-04T11:40:37.561Z,101558.06
2023-05-04T11:43:05.280Z,101546.88
2023-05-04T11:45:35.384Z,101549.00
2023-05-04T11:48:03.569Z,101547.56
2023-05-04T11:50:31.824Z,101534.19
2023-05-04T11:53:06.942Z,101541.56
2023-05-04T11:55:36.193Z,101532.88
2023-05-04T11:58:08.577Z,101531.38
2023-05-04T12:00:43.299Z,101536.59
2023-05-04T12:03:13.961Z,101530.50
2023-05-04T12:05:52.703Z,101523.75
2023-05-04T12:08:27.491Z,101522.44
2023-05-04T12:11:21.860Z,101517.47
2023-05-04T12:14:06.977Z,101525.56
2023-05-04T12:16:35.006Z,101508.97
2023-05-04T12:19:08.311Z,101510.72
2023-05-04T12:21:36.249Z,101509.03
2023-05-04T12:24:05.969Z,101506.03
2023-05-04T12:26:33.570Z,101498.59
2023-05-04T12:29:01.182Z,101510.56
2023-05-04T12:31:30.430Z,101497.38
2023-05-04T12:33:58.176Z,101492.53
2023-05-04T12:36:25.724Z,101490.41
2023-05-04T12:38:53.869Z,101488.84
2023-05-04T12:41:21.520Z,101492.84
2023-05-04T12:43:49.471Z,101480.88
2023-05-04T12:46:21.476Z,101492.69
2023-05-04T12:48:49.185Z,101481.88
2023-05-04T12:51:16.685Z,101476.50
2023-05-04T12:53:44.294Z,101479.00
2023-05-04T12:56:11.816Z,101482.38
2023-05-04T12:58:39.390Z,101484.00
2023-05-04T13:01:07.513Z,101484.19
2023-05-04T13:03:35.582Z,101477.63
2023-05-04T13:06:04.443Z,101472.75
2023-05-04T13:08:33.651Z,101473.72
2023-05-04T13:11:01.272Z,101466.56
2023-05-04T13:13:29.755Z,101464.31
2023-05-04T13:15:57.630Z,101450.94
2023-05-04T13:18:28.092Z,101451.63
2023-05-04T13:20:56.275Z,101439.00
2023-05-04T13:23:24.377Z,101432.78
2023-05-04T13:25:52.514Z,101435.63
2023-05-04T13:28:20.046Z,101427.84
2023-05-04T13:30:47.640Z,101433.63
2023-05-04T13:33:28.070Z,101426.84
2023-05-04T13:35:58.317Z,101430.25
2023-05-04T13:38:26.577Z,101427.38
2023-05-04T13:40:55.354Z,101423.94
2023-05-04T13:43:23.190Z,101420.16
2023-05-04T13:45:51.366Z,101424.63
2023-05-04T13:48:18.891Z,101417.31
2023-05-04T13:50:46.447Z,101423.69
2023-05-04T13:53:14.060Z,101416.78
2023-05-04T13:55:41.577Z,101414.66
2023-05-04T13:58:09.147Z,101413.22
2023-05-04T14:00:36.799Z,101413.09
2023-05-04T14:03:04.782Z,101403.72
2023-05-04T14:05:32.631Z,101400.06
2023-05-04T14:08:00.129Z,101399.06
2023-05-04T14:10:27.974Z,101407.81
2023-05-04T14:12:56.119Z,101397.78
2023-05-04T14:15:23.826Z,101401.66
2023-05-04T14:17:51.434Z,101395.91
2023-05-04T14:20:19.193Z,101392.19
2023-05-04T14:22:46.754Z,101398.31
2023-05-04T14:25:14.893Z,101389.84
2023-05-04T14:27:43.439Z,101398.44
2023-05-04T14:30:11.700Z,101386.13
2023-05-04T14:32:40.871Z,101373.34
2023-05-04T14:35:10.375Z,101375.50
2023-05-04T14:37:38.958Z,101376.78
2023-05-04T14:40:08.626Z,101379.47
2023-05-04T14:42:37.310Z,101376.03
2023-05-04T14:45:06.387Z,101381.47
2023-05-04T14:47:34.240Z,101376.25
2023-05-04T14:50:02.330Z,101375.72
2023-05-04T14:52:29.945Z,101377.44
2023-05-04T14:54:57.500Z,101371.31
2023-05-04T14:57:25.061Z,101365.50
2023-05-04T14:59:52.738Z,101367.94
2023-05-04T15:02:20.955Z,101350.59
2023-05-04T15:04:49.093Z,101357.66
2023-05-04T15:07:18.716Z,101360.06
2023-05-04T15:09:46.441Z,101360.59
2023-05-04T15:12:14.367Z,101353.34
2023-05-04T15:14:41.912Z,101357.84
2023-05-04T15:17:09.508Z,101356.63
2023-05-04T15:19:38.254Z,101352.44
2023-05-04T15:22:07.180Z,101357.59
2023-05-04T15:24:35.808Z,101350.56
2023-05-04T15:27:03.775Z,101351.88
2023-05-04T15:29:31.447Z,101350.53
2023-05-04T15:31:59.029Z,101351.94
2023-05-04T15:34:26.723Z,101348.78
2023-05-04T15:36:55.198Z,101344.22
2023-05-04T15:39:22.838Z,101351.34
2023-05-04T15:41:50.483Z,101347.47
2023-05-04T15:44:21.014Z,101343.03
2023-05-04T15:46:48.886Z,101337.91
2023-05-04T15:49:16.405Z,101345.38
2023-05-04T15:51:43.904Z,101343.22
2023-05-04T15:54:11.441Z,101343.50
2023-05-04T15:56:38.957Z,101343.56
2023-05-04T15:59:06.637Z,101337.75
2023-05-04T16:01:34.627Z,101345.63
2023-05-04T16:04:02.431Z,101339.94
2023-05-04T16:06:31.306Z,101345.44
2023-05-04T16:09:01.653Z,101340.88
2023-05-04T16:11:30.525Z,101346.97
2023-05-04T16:13:58.017Z,101340.13
2023-05-04T16:16:26.001Z,101347.94
2023-05-04T16:18:53.712Z,101337.59
2023-05-04T16:21:21.375Z,101344.94
2023-05-04T16:23:48.937Z,101341.78
2023-05-04T16:26:16.783Z,101339.22
2023-05-04T16:28:45.413Z,101345.09
2023-05-04T16:31:13.121Z,101350.75
2023-05-04T16:33:47.156Z,101350.00
2023-05-04T16:36:15.187Z,101347.72
2023-05-04T16:38:42.745Z,101351.63
2023-05-04T16:41:10.222Z,101354.84
2023-05-04T16:43:37.840Z,101358.78
2023-05-04T16:46:05.484Z,101351.94
2023-05-04T16:48:33.295Z,101351.47
2023-05-04T16:51:00.783Z,101353.81
2023-05-04T16:53:30.787Z,101353.25
2023-05-04T16:55:58.484Z,101350.34
2023-05-04T16:58:26.958Z,101353.13
2023-05-04T17:00:54.593Z,101353.41
2023-05-04T17:03:22.259Z,101355.88
2023-05-04T17:05:50.055Z,101360.53
2023-05-04T17:08:18.325Z,101354.41
2023-05-04T17:10:46.052Z,101351.75
2023-05-04T17:13:14.320Z,101361.84
2023-05-04T17:15:41.810Z,101365.16
2023-05-04T17:18:09.568Z,101356.38
2023-05-04T17:20:37.026Z,101360.88
2023-05-04T17:23:04.564Z,101364.44
2023-05-04T17:25:32.305Z,101364.94
2023-05-04T17:27:59.887Z,101370.06
2023-05-04T17:30:27.370Z,101369.94
2023-05-04T17:32:57.346Z,101374.69
2023-05-04T17:35:26.294Z,101376.03
2023-05-04T17:37:57.943Z,101373.69
2023-05-04T17:40:27.989Z,101380.41
2023-05-04T17:42:56.428Z,101376.38
2023-05-04T17:45:24.078Z,101382.97
2023-05-04T17:47:51.940Z,101376.75
2023-05-04T17:50:19.998Z,101376.38
2023-05-04T17:52:55.409Z,101373.91
2023-05-04T17:55:27.792Z,101370.75
2023-05-04T17:57:55.386Z,101376.97
2023-05-04T18:00:23.072Z,101387.06
2023-05-04T18:02:50.901Z,101379.03
2023-05-04T18:05:18.665Z,101376.34
2023-05-04T18:07:46.348Z,101378.53
2023-05-04T18:10:13.910Z,101381.56
2023-05-04T18:12:41.744Z,101383.00
2023-05-04T18:15:10.012Z,101375.16
2023-05-04T18:17:38.312Z,101369.22
2023-05-04T18:20:08.374Z,101375.16
2023-05-04T18:22:36.967Z,101368.25
2023-05-04T18:25:04.803Z,101368.59
2023-05-04T18:27:34.199Z,101367.13
2023-05-04T18:30:03.481Z,101364.53
2023-05-04T18:32:31.731Z,101370.16
2023-05-04T18:34:59.313Z,101372.31
2023-05-04T18:37:30.446Z,101360.75
2023-05-04T18:39:58.718Z,101360.25
2023-05-04T18:42:26.363Z,101352.06
2023-05-04T18:44:54.881Z,101361.53
2023-05-04T18:47:22.450Z,101359.56
2023-05-04T18:49:54.700Z,101351.88
2023-05-04T18:52:22.761Z,101358.34
2023-05-04T18:54:51.073Z,101349.31
2023-05-04T18:57:18.583Z,101354.88
2023-05-04T18:59:46.215Z,101347.31
2023-05-04T19:02:13.854Z,101345.97
2023-05-04T19:04:41.480Z,101347.16
2023-05-04T19:07:11.998Z,101345.56
2023-05-04T19:09:39.519Z,101347.84
2023-05-04T19:12:07.371Z,101340.97
2023-05-04T19:14:36.686Z,101341.19
2023-05-04T19:17:05.516Z,101332.41
2023-05-04T19:19:36.939Z,101344.19
2023-05-04T19:22:04.836Z,101334.41
2023-05-04T19:24:34.427Z,101334.41
2023-05-04T19:27:02.023Z,101330.91
2023-05-04T19:29:29.779Z,101325.44
2023-05-04T19:31:59.542Z,101330.69
2023-05-04T19:34:29.534Z,101331.44
2023-05-04T19:36:57.177Z,101336.91
2023-05-04T19:39:25.176Z,101336.38
2023-05-04T19:41:52.729Z,101335.84
2023-05-04T19:44:21.096Z,101334.41
2023-05-04T19:46:51.623Z,101332.38
2023-05-04T19:49:19.841Z,101330.22
2023-05-04T19:51:47.754Z,101331.19
2023-05-04T19:54:15.586Z,101331.91
2023-05-04T19:56:43.221Z,101334.88
2023-05-04T19:59:10.906Z,101337.78
2023-05-04T20:01:38.489Z,101333.41
2023-05-04T20:04:08.338Z,101327.66
2023-05-04T20:06:36.929Z,101332.34
2023-05-04T20:09:04.453Z,101328.28
2023-05-04T20:11:32.028Z,101331.72
2023-05-04T20:14:00.068Z,101330.81
2023-05-04T20:16:27.794Z,101329.66
2023-05-04T20:18:55.329Z,101328.94
2023-05-04T20:21:23.275Z,101330.63
2023-05-04T20:23:50.858Z,101324.31
2023-05-04T20:26:18.514Z,101330.41
2023-05-04T20:28:46.500Z,101332.34
2023-05-04T20:31:13.988Z,101322.75
2023-05-04T20:33:41.544Z,101333.06
2023-05-04T20:36:11.651Z,101325.91
2023-05-04T20:38:39.502Z,101327.53
2023-05-04T20:41:08.248Z,101328.94
2023-05-04T20:43:36.312Z,101323.88
2023-05-04T20:46:04.555Z,101321.44
2023-05-04T20:48:32.452Z,101326.75
2023-05-04T20:51:12.796Z,101325.91
2023-05-04T20:53:42.017Z,101315.88
2023-05-04T20:56:09.813Z,101329.09
2023-05-04T20:58:37.562Z,101332.09
2023-05-04T21:01:05.805Z,101327.81
2023-05-04T21:03:34.325Z,101321.63
2023-05-04T21:06:02.679Z,101324.28
2023-05-04T21:08:30.779Z,101322.47
2023-05-04T21:10:58.806Z,101330.47
2023-05-04T21:13:26.932Z,101325.25
2023-05-04T21:15:54.471Z,101338.59
2023-05-04T21:18:22.656Z,101328.88
2023-05-04T21:20:50.356Z,101337.28
2023-05-04T21:23:17.920Z,101343.28
2023-05-04T21:25:45.524Z,101332.06
2023-05-04T21:28:13.104Z,101333.78
2023-05-04T21:30:42.215Z,101330.16
2023-05-04T21:33:09.682Z,101330.66
2023-05-04T21:35:37.098Z,101326.69
2023-05-04T21:38:04.659Z,101329.38
2023-05-04T21:40:35.301Z,101326.69
2023-05-04T21:43:02.890Z,101325.63
2023-05-04T21:45:31.784Z,101321.78
2023-05-04T21:47:59.714Z,101321.53
2023-05-04T21:50:27.332Z,101331.25
2023-05-04T21:52:54.958Z,101330.50
2023-05-04T21:55:22.667Z,101328.69
2023-05-04T21:57:50.351Z,101328.34
2023-05-04T22:00:18.918Z,101318.66
2023-05-04T22:02:46.683Z,101317.41
2023-05-04T22:05:14.365Z,101316.44
2023-05-04T22:07:42.718Z,101313.38
2023-05-04T22:10:11.332Z,101321.19
2023-05-04T22:12:39.172Z,101310.50
2023-05-04T22:15:07.822Z,101309.00
2023-05-04T22:17:35.408Z,101307.03
2023-05-04T22:20:03.368Z,101310.22
2023-05-04T22:22:31.248Z,101305.09
2023-05-04T22:24:58.870Z,101289.84
2023-05-04T22:27:26.437Z,101289.72
2023-05-04T22:29:53.914Z,101289.22
2023-05-04T22:32:21.511Z,101293.69
2023-05-04T22:34:49.022Z,101280.38
2023-05-04T22:37:16.477Z,101280.03
2023-05-04T22:39:44.012Z,101278.09
2023-05-04T22:42:11.510Z,101277.25
2023-05-04T22:44:39.054Z,101271.91
2023-05-04T22:47:06.771Z,101270.09
2023-05-04T22:49:34.620Z,101267.38
2023-05-04T22:52:02.217Z,101260.31
2023-05-04T22:54:29.895Z,101254.03
2023-05-04T22:56:57.584Z,101259.13
2023-05-04T22:59:25.120Z,101260.31
2023-05-04T23:01:53.724Z,101254.56
2023-05-04T23:04:21.579Z,101255.16
2023-05-04T23:06:49.161Z,101250.50
2023-05-04T23:09:17.574Z,101252.50
2023-05-04T23:11:45.274Z,101254.31
2023-05-04T23:14:12.923Z,101248.66
2023-05-04T23:16:40.438Z,101247.34
2023-05-04T23:19:07.883Z,101249.66
2023-05-04T23:21:35.905Z,101250.03
2023-05-04T23:24:03.491Z,101251.28
2023-05-04T23:26:31.015Z,101251.28
2023-05-04T23:28:58.858Z,101252.16
2023-05-04T23:31:26.451Z,101256.91
2023-05-04T23:33:53.896Z,101243.50
2023-05-04T23:36:22.085Z,101237.72
2023-05-04T23:38:49.551Z,101247.31
2023-05-04T23:41:17.151Z,101241.03
2023-05-04T23:43:44.603Z,101244.09
2023-05-04T23:46:12.813Z,101244.41
2023-05-04T23:48:40.566Z,101243.50
2023-05-04T23:51:09.010Z,101247.44
2023-05-04T23:53:36.867Z,101242.19
2023-05-04T23:56:06.300Z,101246.50
2023-05-04T23:58:34.614Z,101247.34
